createdAt,value
2023-05-12T00:00:02.081Z,100662.38
2023-05-12T00:02:29.441Z,100660.84
2023-05-12T00:04:56.869Z,100657.84
2023-05-12T00:07:24.219Z,100660.81
2023-05-12T00:09:51.526Z,100664.59
2023-05-12T00:12:18.900Z,100651.97
2023-05-12T00:14:46.416Z,100649.75
2023-05-12T00:17:13.682Z,100655.47
2023-05-12T00:19:40.978Z,100659.19
2023-05-12T00:22:08.278Z,100650.09
2023-05-12T00:24:36.021Z,100655.94
2023-05-12T00:27:03.542Z,100659.69
2023-05-12T00:29:46.390Z,100664.25
2023-05-12T00:32:32.593Z,100669.38
2023-05-12T00:35:00.314Z,100664.81
2023-05-12T00:37:27.677Z,100669.91
2023-05-12T00:39:54.984Z,100668.59
2023-05-12T00:42:22.812Z,100671.50
2023-05-12T00:44:50.295Z,100667.25
2023-05-12T00:47:18.044Z,100667.78
2023-05-12T00:49:45.444Z,100675.53
2023-05-12T00:52:12.879Z,100676.91
2023-05-12T00:54:40.841Z,100678.78
2023-05-12T00:57:08.359Z,100672.06
2023-05-12T00:59:35.731Z,100678.50
2023-05-12T01:02:03.529Z,100685.47
2023-05-12T01:04:30.928Z,100686.53
2023-05-12T01:07:10.054Z,100683.84
2023-05-12T01:09:37.454Z,100682.81
2023-05-12T01:12:05.166Z,100672.91
2023-05-12T01:14:32.504Z,100674.75
2023-05-12T01:17:01.969Z,100672.88
2023-05-12T01:19:41.698Z,100679.06
2023-05-12T01:22:10.700Z,100675.28
2023-05-12T01:24:51.322Z,100672.63
2023-05-12T01:27:20.470Z,100666.44
2023-05-12T01:29:48.360Z,100664.81
2023-05-12T01:32:16.278Z,100666.16
2023-05-12T01:34:44.126Z,100665.13
2023-05-12T01:37:11.639Z,100674.25
2023-05-12T01:39:39.080Z,100672.34
2023-05-12T01:42:07.739Z,100678.22
2023-05-12T01:44:35.185Z,100666.47
2023-05-12T01:47:02.801Z,100668.09
2023-05-12T01:49:30.499Z,100665.13
2023-05-12T01:51:57.858Z,100667.00
2023-05-12T01:54:25.128Z,100666.47
2023-05-12T01:56:52.772Z,100664.06
2023-05-12T01:59:20.093Z,100664.84
2023-05-12T02:01:47.483Z,100654.41
2023-05-12T02:04:15.158Z,100654.13
2023-05-12T02:06:42.539Z,100659.47
2023-05-12T02:09:09.899Z,100660.56
2023-05-12T02:11:37.189Z,100667.78
2023-05-12T02:14:04.637Z,100672.09
2023-05-12T02:16:32.036Z,100662.44
2023-05-12T02:18:59.451Z,100670.47
2023-05-12T02:21:26.774Z,100665.88
2023-05-12T02:23:54.186Z,100666.41
2023-05-12T02:26:21.641Z,100675.78
2023-05-12T02:28:49.370Z,100668.03
2023-05-12T02:31:16.795Z,100672.59
2023-05-12T02:33:44.456Z,100660.56
2023-05-12T02:36:11.749Z,100665.66
2023-05-12T02:38:39.231Z,100676.63
2023-05-12T02:41:06.568Z,100669.97
2023-05-12T02:43:34.036Z,100672.09
2023-05-12T02:46:01.748Z,100674.22
2023-05-12T02:48:29.109Z,100677.97
2023-05-12T02:50:56.598Z,100672.91
2023-05-12T02:53:23.883Z,100675.78
2023-05-12T02:55:51.235Z,100679.31
2023-05-12T02:58:18.878Z,100679.56
2023-05-12T03:00:47.533Z,100678.22
2023-05-12T03:03:17.537Z,100677.69
2023-05-12T03:05:44.992Z,100682.53
2023-05-12T03:08:12.287Z,100682.81
2023-05-12T03:10:39.737Z,100686.50
2023-05-12T03:13:06.987Z,100685.72
2023-05-12T03:15:34.370Z,100685.47
2023-05-12T03:18:01.764Z,100694.53
2023-05-12T03:20:29.066Z,100699.91
2023-05-12T03:22:56.430Z,100691.91
2023-05-12T03:25:23.923Z,100700.44
2023-05-12T03:27:51.339Z,100697.75
2023-05-12T03:30:18.793Z,100706.31
2023-05-12T03:32:46.374Z,100702.06
2023-05-12T03:35:13.768Z,100715.50
2023-05-12T03:37:41.292Z,100718.97
2023-05-12T03:40:09.069Z,100715.84
2023-05-12T03:42:36.349Z,100725.66
2023-05-12T03:45:03.895Z,100728.84
2023-05-12T03:47:31.534Z,100730.38
2023-05-12T03:50:12.252Z,100724.09
2023-05-12T03:52:40.687Z,100733.78
2023-05-12T03:55:08.580Z,100735.03
2023-05-12T03:57:35.997Z,100738.41
2023-05-12T04:00:05.529Z,100751.84
2023-05-12T04:02:33.592Z,100750.72
2023-05-12T04:05:01.735Z,100756.09
2023-05-12T04:07:29.560Z,100761.41
2023-05-12T04:09:57.977Z,100758.09
2023-05-12T04:12:25.751Z,100761.06
2023-05-12T04:14:53.927Z,100767.28
2023-05-12T04:17:21.714Z,100772.78
2023-05-12T04:19:49.857Z,100771.19
2023-05-12T04:22:17.580Z,100787.09
2023-05-12T04:24:45.385Z,100775.47
2023-05-12T04:27:12.570Z,100784.72
2023-05-12T04:29:39.959Z,100776.50
2023-05-12T04:32:07.971Z,100780.34
2023-05-12T04:34:35.816Z,100781.44
2023-05-12T04:37:03.086Z,100781.72
2023-05-12T04:39:30.487Z,100787.81
2023-05-12T04:41:59.662Z,100786.75
2023-05-12T04:44:27.061Z,100793.19
2023-05-12T04:46:54.398Z,100800.09
2023-05-12T04:49:22.596Z,100794.53
2023-05-12T04:51:50.089Z,100798.75
2023-05-12T04:54:17.509Z,100792.84
2023-05-12T04:56:44.872Z,100806.06
2023-05-12T04:59:12.669Z,100798.97
2023-05-12T05:01:40.091Z,100794.69
2023-05-12T05:04:08.187Z,100802.53
2023-05-12T05:06:35.841Z,100810.75
2023-05-12T05:09:04.012Z,100804.56
2023-05-12T05:11:31.649Z,100806.66
2023-05-12T05:14:00.047Z,100804.28
2023-05-12T05:16:28.218Z,100800.03
2023-05-12T05:18:56.674Z,100807.00
2023-05-12T05:21:25.480Z,100809.59
2023-05-12T05:23:53.127Z,100807.38
2023-05-12T05:26:20.447Z,100808.47
2023-05-12T05:28:47.689Z,100801.56
2023-05-12T05:31:16.738Z,100802.63
2023-05-12T05:33:44.440Z,100803.91
2023-05-12T05:36:11.993Z,100810.63
2023-05-12T05:38:39.486Z,100810.09
2023-05-12T05:41:07.111Z,100813.78
2023-05-12T05:43:34.813Z,100810.41
2023-05-12T05:46:02.049Z,100820.00
2023-05-12T05:48:29.311Z,100813.91
2023-05-12T05:50:56.778Z,100814.97
2023-05-12T05:53:24.148Z,100819.34
2023-05-12T05:55:51.438Z,100813.41
2023-05-12T05:58:18.771Z,100828.66
2023-05-12T06:00:46.499Z,100826.22
2023-05-12T06:03:13.935Z,100824.59
2023-05-12T06:05:42.331Z,100836.47
2023-05-12T06:08:09.691Z,100838.59
2023-05-12T06:10:37.382Z,100842.66
2023-05-12T06:13:04.682Z,100841.97
2023-05-12T06:15:31.941Z,100840.13
2023-05-12T06:17:59.220Z,100841.25
2023-05-12T06:20:26.587Z,100848.22
2023-05-12T06:22:53.841Z,100841.50
2023-05-12T06:25:21.405Z,100856.97
2023-05-12T06:27:52.718Z,100852.13
2023-05-12T06:30:20.067Z,100849.66
2023-05-12T06:32:47.416Z,100862.31
2023-05-12T06:35:14.901Z,100860.44
2023-05-12T06:37:42.257Z,100868.59
2023-05-12T06:40:09.945Z,100874.25
2023-05-12T06:42:37.195Z,100868.44
2023-05-12T06:45:05.195Z,100874.38
2023-05-12T06:47:32.763Z,100874.56
2023-05-12T06:50:00.036Z,100884.69
2023-05-12T06:52:27.363Z,100883.50
2023-05-12T06:54:57.448Z,100878.41
2023-05-12T06:57:24.748Z,100886.78
2023-05-12T06:59:52.286Z,100874.28
2023-05-12T07:02:19.536Z,100876.56
2023-05-12T07:04:47.063Z,100868.34
2023-05-12T07:07:14.432Z,100870.25
2023-05-12T07:09:41.858Z,100868.59
2023-05-12T07:12:09.318Z,100868.59
2023-05-12T07:14:36.646Z,100860.09
2023-05-12T07:17:04.077Z,100851.34
2023-05-12T07:19:31.399Z,100852.13
2023-05-12T07:21:58.689Z,100856.16
2023-05-12T07:24:26.101Z,100859.16
2023-05-12T07:26:53.512Z,100867.50
2023-05-12T07:29:20.805Z,100862.88
2023-05-12T07:31:50.982Z,100862.91
2023-05-12T07:34:18.442Z,100864.19
2023-05-12T07:36:45.882Z,100867.19
2023-05-12T07:39:13.192Z,100872.22
2023-05-12T07:41:41.140Z,100866.13
2023-05-12T07:44:08.673Z,100867.19
2023-05-12T07:46:36.093Z,100865.38
2023-05-12T07:49:03.639Z,100872.03
2023-05-12T07:51:30.928Z,100868.81
2023-05-12T07:53:58.302Z,100868.81
2023-05-12T07:56:25.691Z,100870.72
2023-05-12T07:58:52.963Z,100884.84
2023-05-12T08:01:20.225Z,100871.75
2023-05-12T08:03:48.889Z,100862.41
2023-05-12T08:06:16.495Z,100866.69
2023-05-12T08:08:43.899Z,100872.59
2023-05-12T08:11:11.345Z,100872.59
2023-05-12T08:13:38.977Z,100880.38
2023-05-12T08:16:06.831Z,100871.03
2023-05-12T08:18:34.105Z,100868.34
2023-05-12T08:21:01.489Z,100867.50
2023-05-12T08:23:28.844Z,100875.28
2023-05-12T08:25:56.189Z,100869.13
2023-05-12T08:28:23.535Z,100869.91
2023-05-12T08:30:51.669Z,100865.63
2023-05-12T08:33:19.120Z,100863.75
2023-05-12T08:35:50.298Z,100868.84
2023-05-12T08:38:17.706Z,100875.03
2023-05-12T08:41:18.012Z,100874.72
2023-05-12T08:43:55.306Z,100876.91
2023-05-12T08:46:23.147Z,100878.22
2023-05-12T08:48:54.755Z,100874.78
2023-05-12T08:51:24.286Z,100873.69
2023-05-12T08:53:54.092Z,100866.72
2023-05-12T08:58:53.971Z,100864.56
2023-05-12T09:01:21.727Z,100859.75
2023-05-12T09:03:51.269Z,100866.97
2023-05-12T09:06:18.788Z,100871.81
2023-05-12T09:08:46.166Z,100867.00
2023-05-12T09:11:14.247Z,100853.06
2023-05-12T09:13:53.774Z,100856.00
2023-05-12T09:16:25.140Z,100858.13
2023-05-12T09:18:56.642Z,100860.56
2023-05-12T09:21:25.692Z,100877.47
2023-05-12T09:24:04.002Z,100865.66
2023-05-12T09:26:33.364Z,100866.72
2023-05-12T09:29:07.543Z,100862.97
2023-05-12T09:31:36.317Z,100861.34
2023-05-12T09:34:08.580Z,100873.97
2023-05-12T09:36:36.411Z,100862.16
2023-05-12T09:39:06.313Z,100857.06
2023-05-12T09:41:37.309Z,100862.25
2023-05-12T09:44:07.071Z,100857.94
2023-05-12T09:46:34.957Z,100865.00
2023-05-12T09:49:03.022Z,100867.69
2023-05-12T09:51:30.915Z,100860.25
2023-05-12T09:53:58.757Z,100865.09
2023-05-12T09:56:29.129Z,100874.50
2023-05-12T09:58:57.381Z,100870.19
2023-05-12T10:01:26.608Z,100867.78
2023-05-12T10:03:59.431Z,100865.09
2023-05-12T10:06:30.093Z,100863.50
2023-05-12T10:09:19.391Z,100861.88
2023-05-12T10:11:53.725Z,100866.72
2023-05-12T10:14:23.366Z,100860.81
2023-05-12T10:16:51.888Z,100856.25
2023-05-12T10:19:20.572Z,100854.09
2023-05-12T10:21:48.936Z,100847.94
2023-05-12T10:24:17.024Z,100840.44
2023-05-12T10:26:44.807Z,100851.94
2023-05-12T10:29:13.546Z,100857.31
2023-05-12T10:31:42.121Z,100855.97
2023-05-12T10:34:17.298Z,100860.56
2023-05-12T10:36:49.676Z,100862.97
2023-05-12T10:39:17.226Z,100856.75
2023-05-12T10:41:44.539Z,100854.59
2023-05-12T10:44:11.910Z,100855.16
2023-05-12T10:46:39.349Z,100858.09
2023-05-12T10:49:06.616Z,100856.72
2023-05-12T10:51:38.069Z,100857.56
2023-05-12T10:54:07.848Z,100851.09
2023-05-12T10:56:38.255Z,100852.38
2023-05-12T10:59:12.000Z,100860.66
2023-05-12T11:01:41.654Z,100855.59
2023-05-12T11:04:17.520Z,100866.06
2023-05-12T11:06:53.275Z,100863.16
2023-05-12T11:09:21.614Z,100859.06
2023-05-12T11:11:50.287Z,100867.16
2023-05-12T11:14:17.927Z,100860.72
2023-05-12T11:16:45.679Z,100855.34
2023-05-12T11:19:13.198Z,100862.81
2023-05-12T11:21:40.860Z,100859.31
2023-05-12T11:24:08.130Z,100858.53
2023-05-12T11:26:35.628Z,100861.22
2023-05-12T11:29:03.864Z,100861.63
2023-05-12T11:31:31.229Z,100862.00
2023-05-12T11:34:12.704Z,100866.50
2023-05-12T11:36:42.435Z,100865.97
2023-05-12T11:39:19.257Z,100866.47
2023-05-12T11:41:47.009Z,100876.34
2023-05-12T11:44:16.201Z,100873.47
2023-05-12T11:47:01.809Z,100875.03
2023-05-12T11:49:30.710Z,100860.59
2023-05-12T11:52:01.762Z,100868.91
2023-05-12T11:54:29.942Z,100872.09
2023-05-12T11:56:58.407Z,100867.78
2023-05-12T11:59:30.574Z,100874.56
2023-05-12T12:02:00.237Z,100872.34
2023-05-12T12:04:40.420Z,100872.03
2023-05-12T12:07:08.925Z,100874.72
2023-05-12T12:09:39.097Z,100878.75
2023-05-12T12:12:07.997Z,100875.75
2023-05-12T12:14:36.864Z,100869.03
2023-05-12T12:17:04.766Z,100868.81
2023-05-12T12:19:32.072Z,100877.06
2023-05-12T12:21:59.324Z,100872.22
2023-05-12T12:24:26.731Z,100869.19
2023-05-12T12:26:57.038Z,100870.09
2023-05-12T12:29:24.449Z,100868.25
2023-05-12T12:31:51.930Z,100867.91
2023-05-12T12:34:20.070Z,100862.75
2023-05-12T12:36:47.389Z,100865.41
2023-05-12T12:39:14.755Z,100868.25
2023-05-12T12:41:42.088Z,100866.41
2023-05-12T12:44:09.388Z,100870.69
2023-05-12T12:46:36.649Z,100870.91
2023-05-12T12:49:03.934Z,100866.03
2023-05-12T12:51:44.648Z,100858.03
2023-05-12T12:54:13.457Z,100858.56
2023-05-12T12:56:41.129Z,100850.19
2023-05-12T12:59:09.340Z,100857.44
2023-05-12T13:01:36.731Z,100849.06
2023-05-12T13:04:04.642Z,100845.63
2023-05-12T13:06:32.312Z,100837.97
2023-05-12T13:09:00.025Z,100833.84
2023-05-12T13:11:27.691Z,100832.09
2023-05-12T13:13:55.031Z,100833.03
2023-05-12T13:16:22.472Z,100826.63
2023-05-12T13:18:49.885Z,100832.91
2023-05-12T13:21:17.283Z,100816.84
2023-05-12T13:23:44.508Z,100822.72
2023-05-12T13:26:11.791Z,100820.53
2023-05-12T13:28:39.091Z,100819.63
2023-05-12T13:31:06.468Z,100817.03
2023-05-12T13:33:33.778Z,100810.66
2023-05-12T13:36:01.584Z,100819.06
2023-05-12T13:38:28.899Z,100814.19
2023-05-12T13:40:56.258Z,100816.38
2023-05-12T13:43:23.557Z,100812.50
2023-05-12T13:45:50.901Z,100817.78
2023-05-12T13:48:18.160Z,100812.63
2023-05-12T13:50:45.487Z,100808.66
2023-05-12T13:53:12.813Z,100811.47
2023-05-12T13:55:41.009Z,100811.41
2023-05-12T13:58:08.435Z,100814.38
2023-05-12T14:00:36.139Z,100809.66
2023-05-12T14:03:03.678Z,100809.31
2023-05-12T14:05:31.243Z,100809.53
2023-05-12T14:07:58.607Z,100815.25
2023-05-12T14:10:26.068Z,100813.78
2023-05-12T14:12:53.399Z,100818.25
2023-05-12T14:15:32.503Z,100800.38
2023-05-12T14:18:03.875Z,100808.34
2023-05-12T14:20:31.886Z,100808.25
2023-05-12T14:22:59.125Z,100801.41
2023-05-12T14:25:26.372Z,100807.19
2023-05-12T14:27:54.337Z,100794.88
2023-05-12T14:30:21.706Z,100793.25
2023-05-12T14:32:49.115Z,100796.25
2023-05-12T14:35:16.444Z,100797.75
2023-05-12T14:37:43.653Z,100803.47
2023-05-12T14:40:11.533Z,100794.16
2023-05-12T14:42:38.839Z,100796.47
2023-05-12T14:45:06.804Z,100793.84
2023-05-12T14:47:34.135Z,100795.66
2023-05-12T14:50:01.458Z,100796.34
2023-05-12T14:52:29.303Z,100794.94
2023-05-12T14:54:56.772Z,100783.16
2023-05-12T14:57:24.234Z,100785.91
2023-05-12T14:59:51.704Z,100788.13
2023-05-12T15:02:22.268Z,100779.22
2023-05-12T15:04:49.665Z,100775.81
2023-05-12T15:07:16.936Z,100775.81
2023-05-12T15:09:44.675Z,100783.16
2023-05-12T15:12:12.003Z,100775.69
2023-05-12T15:14:39.278Z,100775.75
2023-05-12T15:17:06.664Z,100774.69
2023-05-12T15:19:34.238Z,100768.69
2023-05-12T15:22:01.465Z,100769.69
2023-05-12T15:24:28.761Z,100771.38
2023-05-12T15:26:56.249Z,100768.16
2023-05-12T15:29:23.712Z,100767.81
2023-05-12T15:31:51.520Z,100766.72
2023-05-12T15:34:18.961Z,100777.69
2023-05-12T15:36:46.774Z,100774.91
2023-05-12T15:39:15.162Z,100768.91
2023-05-12T15:41:43.007Z,100768.97
2023-05-12T15:44:10.392Z,100771.84
2023-05-12T15:46:37.758Z,100764.09
2023-05-12T15:49:05.081Z,100765.06
2023-05-12T15:51:32.490Z,100763.00
2023-05-12T15:53:59.724Z,100765.66
2023-05-12T15:56:26.982Z,100761.00
2023-05-12T15:58:54.441Z,100752.88
2023-05-12T16:01:21.715Z,100755.59
2023-05-12T16:03:52.909Z,100758.63
2023-05-12T16:06:20.736Z,100757.78
2023-05-12T16:08:48.629Z,100760.34
2023-05-12T16:11:16.095Z,100763.69
2023-05-12T16:13:43.519Z,100766.06
2023-05-12T16:16:10.852Z,100770.44
2023-05-12T16:18:38.189Z,100765.50
2023-05-12T16:21:05.729Z,100770.22
2023-05-12T16:23:32.900Z,100769.91
2023-05-12T16:26:00.185Z,100771.88
2023-05-12T16:28:27.596Z,100770.22
2023-05-12T16:30:54.859Z,100768.31
2023-05-12T16:33:22.127Z,100769.53
2023-05-12T16:35:49.362Z,100764.00
2023-05-12T16:38:17.249Z,100770.91
2023-05-12T16:40:44.546Z,100770.88
2023-05-12T16:43:11.939Z,100771.84
2023-05-12T16:45:39.187Z,100767.66
2023-05-12T16:48:06.556Z,100766.78
2023-05-12T16:50:33.907Z,100771.88
2023-05-12T16:53:01.513Z,100755.81
2023-05-12T16:55:29.007Z,100765.53
2023-05-12T16:57:56.637Z,100760.94
2023-05-12T17:00:24.165Z,100757.25
2023-05-12T17:02:51.749Z,100754.75
2023-05-12T17:05:19.394Z,100758.56
2023-05-12T17:07:47.048Z,100759.66
2023-05-12T17:10:14.712Z,100762.28
2023-05-12T17:12:42.101Z,100769.34
2023-05-12T17:15:10.117Z,100771.00
2023-05-12T17:17:37.636Z,100779.06
2023-05-12T17:20:05.452Z,100790.59
2023-05-12T17:22:32.827Z,100794.19
2023-05-12T17:25:00.200Z,100790.38
2023-05-12T17:27:27.534Z,100783.91
2023-05-12T17:29:54.847Z,100786.59
2023-05-12T17:32:22.301Z,100789.88
2023-05-12T17:34:50.100Z,100788.00
2023-05-12T17:37:17.980Z,100788.91
2023-05-12T17:39:45.314Z,100785.03
2023-05-12T17:42:12.711Z,100787.25
2023-05-12T17:44:40.206Z,100786.16
2023-05-12T17:47:07.594Z,100791.59
2023-05-12T17:49:35.021Z,100788.38
2023-05-12T17:52:02.324Z,100794.81
2023-05-12T17:54:29.632Z,100797.03
2023-05-12T17:56:57.015Z,100798.84
2023-05-12T17:59:24.361Z,100804.00
2023-05-12T18:01:51.980Z,100810.13
2023-05-12T18:04:19.451Z,100804.50
2023-05-12T18:06:46.786Z,100806.38
2023-05-12T18:09:14.334Z,100803.41
2023-05-12T18:11:41.911Z,100809.91
2023-05-12T18:14:09.277Z,100799.22
2023-05-12T18:16:37.017Z,100814.00
2023-05-12T18:19:04.971Z,100821.59
2023-05-12T18:21:32.370Z,100808.91
2023-05-12T18:23:59.952Z,100812.16
2023-05-12T18:26:28.031Z,100806.25
2023-05-12T18:28:55.496Z,100811.59
2023-05-12T18:31:23.023Z,100818.06
2023-05-12T18:33:50.504Z,100823.19
2023-05-12T18:36:17.859Z,100818.66
2023-05-12T18:38:45.835Z,100822.97
2023-05-12T18:41:13.203Z,100824.28
2023-05-12T18:43:40.523Z,100822.94
2023-05-12T18:46:07.875Z,100825.34
2023-05-12T18:48:35.341Z,100818.41
2023-05-12T18:51:02.670Z,100821.38
2023-05-12T18:53:30.075Z,100819.75
2023-05-12T18:55:57.382Z,100814.91
2023-05-12T18:58:24.704Z,100813.88
2023-05-12T19:00:53.507Z,100818.44
2023-05-12T19:03:20.843Z,100814.44
2023-05-12T19:05:48.230Z,100811.13
2023-05-12T19:08:15.502Z,100807.97
2023-05-12T19:10:44.582Z,100813.31
2023-05-12T19:13:11.871Z,100806.88
2023-05-12T19:15:39.176Z,100809.84
2023-05-12T19:18:06.528Z,100808.75
2023-05-12T19:20:33.846Z,100803.94
2023-05-12T19:23:01.150Z,100806.38
2023-05-12T19:25:28.806Z,100797.25
2023-05-12T19:27:56.050Z,100796.72
2023-05-12T19:30:23.923Z,100794.22
2023-05-12T19:32:51.460Z,100791.25
2023-05-12T19:35:19.573Z,100802.38
2023-05-12T19:37:47.008Z,100797.53
2023-05-12T19:40:14.398Z,100798.31
2023-05-12T19:42:41.651Z,100807.75
2023-05-12T19:45:09.348Z,100797.53
2023-05-12T19:47:37.009Z,100797.03
2023-05-12T19:50:05.062Z,100803.44
2023-05-12T19:52:33.131Z,100803.19
2023-05-12T19:55:00.500Z,100796.69
2023-05-12T19:57:27.826Z,100796.16
2023-05-12T19:59:55.362Z,100804.28
2023-05-12T20:02:23.107Z,100794.59
2023-05-12T20:04:50.863Z,100808.06
2023-05-12T20:07:18.209Z,100808.03
2023-05-12T20:09:45.545Z,100809.91
2023-05-12T20:12:12.843Z,100812.59
2023-05-12T20:14:40.430Z,100816.09
2023-05-12T20:17:07.834Z,100809.69
2023-05-12T20:19:35.575Z,100814.25
2023-05-12T20:22:02.948Z,100810.25
2023-05-12T20:24:30.442Z,100812.69
2023-05-12T20:26:57.897Z,100805.97
2023-05-12T20:29:25.562Z,100812.13
2023-05-12T20:31:53.098Z,100812.97
2023-05-12T20:34:20.419Z,100815.91
2023-05-12T20:36:48.538Z,100818.31
2023-05-12T20:39:15.837Z,100810.28
2023-05-12T20:41:43.748Z,100808.06
2023-05-12T20:44:11.137Z,100808.38
2023-05-12T20:46:38.849Z,100803.84
2023-05-12T20:49:06.327Z,100808.41
2023-05-12T20:51:33.731Z,100810.56
2023-05-12T20:54:01.129Z,100811.38
2023-05-12T20:56:28.460Z,100809.75
2023-05-12T20:58:55.716Z,100808.69
2023-05-12T21:01:23.218Z,100816.19
2023-05-12T21:04:01.697Z,100815.13
2023-05-12T21:06:30.603Z,100813.25
2023-05-12T21:08:57.809Z,100807.59
2023-05-12T21:11:25.178Z,100803.84
2023-05-12T21:13:52.740Z,100800.59
2023-05-12T21:16:20.039Z,100795.75
2023-05-12T21:18:47.458Z,100796.84
2023-05-12T21:21:14.891Z,100791.75
2023-05-12T21:23:42.151Z,100795.75
2023-05-12T21:26:09.457Z,100794.19
2023-05-12T21:28:37.276Z,100802.22
2023-05-12T21:31:04.617Z,100801.41
2023-05-12T21:33:31.971Z,100799.00
2023-05-12T21:35:59.198Z,100797.41
2023-05-12T21:38:26.483Z,100790.94
2023-05-12T21:40:53.724Z,100787.16
2023-05-12T21:43:21.065Z,100786.69
2023-05-12T21:45:48.369Z,100791.19
2023-05-12T21:48:15.607Z,100787.44
2023-05-12T21:50:42.856Z,100783.97
2023-05-12T21:53:10.254Z,100790.13
2023-05-12T21:55:37.541Z,100802.25
2023-05-12T21:58:05.446Z,100797.38
2023-05-12T22:00:32.765Z,100796.31
2023-05-12T22:03:00.214Z,100799.56
2023-05-12T22:05:27.721Z,100799.56
2023-05-12T22:07:55.256Z,100801.69
2023-05-12T22:10:22.895Z,100793.66
2023-05-12T22:12:50.236Z,100793.13
2023-05-12T22:15:17.547Z,100792.28
2023-05-12T22:17:45.048Z,100793.38
2023-05-12T22:20:12.947Z,100790.97
2023-05-12T22:22:40.219Z,100786.63
2023-05-12T22:25:08.125Z,100785.34
2023-05-12T22:27:35.441Z,100795.28
2023-05-12T22:30:03.742Z,100795.31
2023-05-12T22:32:31.377Z,100796.34
2023-05-12T22:34:58.819Z,100783.75
2023-05-12T22:37:26.114Z,100789.94
2023-05-12T22:39:53.405Z,100791.53
2023-05-12T22:42:21.080Z,100792.06
2023-05-12T22:44:48.276Z,100793.63
2023-05-12T22:47:15.679Z,100797.44
2023-05-12T22:49:43.907Z,100797.94
2023-05-12T22:52:11.176Z,100797.38
2023-05-12T22:54:38.509Z,100799.59
2023-05-12T22:57:06.024Z,100799.00
2023-05-12T22:59:33.469Z,100807.91
2023-05-12T23:02:01.004Z,100811.91
2023-05-12T23:04:28.411Z,100808.72
2023-05-12T23:06:56.112Z,100811.13
2023-05-12T23:09:23.531Z,100799.88
2023-05-12T23:11:50.920Z,100797.13
2023-05-12T23:14:18.301Z,100794.19
2023-05-12T23:16:45.647Z,100784.56
2023-05-12T23:19:12.965Z,100784.56
2023-05-12T23:21:40.337Z,100782.66
2023-05-12T23:24:07.841Z,100780.53
2023-05-12T23:26:35.214Z,100784.00
2023-05-12T23:29:02.530Z,100779.44
2023-05-12T23:31:30.050Z,100780.25
2023-05-12T23:33:57.392Z,100779.72
2023-05-12T23:36:25.265Z,100777.59
2023-05-12T23:38:52.592Z,100776.25
2023-05-12T23:41:21.147Z,100769.53
2023-05-12T23:43:48.625Z,100777.56
2023-05-12T23:46:15.877Z,100772.78
2023-05-12T23:48:43.256Z,100765.28
2023-05-12T23:51:10.542Z,100764.72
2023-05-12T23:53:37.903Z,100767.66
2023-05-12T23:56:05.524Z,100764.19
2023-05-12T23:58:32.883Z,100772.75
